createdAt,value
2019-04-10T00:01:11.170Z,99.90
2019-04-10T00:03:43.506Z,99.90
2019-04-10T00:06:16.583Z,99.90
2019-04-10T00:08:46.351Z,99.90
2019-04-10T00:11:16.563Z,99.90
2019-04-10T00:13:46.959Z,99.90
2019-04-10T00:16:18.088Z,99.90
2019-04-10T00:18:50.547Z,99.90
2019-04-10T00:21:20.987Z,99.90
2019-04-10T00:23:51.266Z,99.90
2019-04-10T00:26:21.665Z,99.90
2019-04-10T00:28:51.941Z,99.90
2019-04-10T00:31:22.772Z,99.90
2019-04-10T00:33:53.549Z,99.90
2019-04-10T00:36:23.538Z,99.90
2019-04-10T00:38:53.867Z,99.90
2019-04-10T00:41:24.021Z,99.90
2019-04-10T00:43:55.156Z,99.90
2019-04-10T00:46:26.224Z,99.90
2019-04-10T00:48:56.484Z,99.90
2019-04-10T00:51:26.420Z,99.90
2019-04-10T00:53:57.270Z,99.90
2019-04-10T00:56:28.332Z,99.90
2019-04-10T00:58:58.333Z,99.90
2019-04-10T01:01:28.228Z,99.90
2019-04-10T01:03:58.095Z,99.90
2019-04-10T01:06:28.207Z,99.90
2019-04-10T01:08:59.194Z,99.90
2019-04-10T01:11:29.480Z,99.90
2019-04-10T01:13:59.317Z,99.90
2019-04-10T01:16:29.366Z,99.90
2019-04-10T01:18:59.511Z,99.90
2019-04-10T01:21:31.151Z,99.90
2019-04-10T01:24:01.427Z,99.90
2019-04-10T01:26:31.598Z,99.90
2019-04-10T01:29:01.567Z,99.90
2019-04-10T01:31:31.428Z,99.90
2019-04-10T01:34:01.272Z,99.90
2019-04-10T01:36:31.207Z,99.90
2019-04-10T01:39:02.060Z,99.90
2019-04-10T01:41:32.809Z,99.90
2019-04-10T01:44:03.464Z,99.90
2019-04-10T01:46:34.988Z,99.90
2019-04-10T01:49:05.167Z,99.90
2019-04-10T01:51:35.193Z,99.90
2019-04-10T01:54:05.020Z,99.90
2019-04-10T01:56:36.765Z,99.90
2019-04-10T01:59:07.747Z,99.90
2019-04-10T02:01:41.447Z,99.90
2019-04-10T02:04:31.417Z,99.90
2019-04-10T02:07:02.175Z,99.90
2019-04-10T02:09:32.403Z,99.90
2019-04-10T02:12:02.626Z,99.90
2019-04-10T02:14:33.256Z,99.90
2019-04-10T02:17:06.439Z,99.90
2019-04-10T02:19:36.982Z,99.90
2019-04-10T02:22:07.309Z,99.90
2019-04-10T02:24:37.523Z,99.90
2019-04-10T02:27:07.900Z,99.90
2019-04-10T02:29:38.021Z,99.90
2019-04-10T02:32:08.191Z,99.90
2019-04-10T02:34:39.343Z,99.90
2019-04-10T02:37:11.010Z,99.90
2019-04-10T02:39:47.018Z,99.90
2019-04-10T02:42:14.333Z,99.90
2019-04-10T02:44:45.871Z,99.90
2019-04-10T02:47:16.816Z,99.90
2019-04-10T02:49:49.013Z,99.90
2019-04-10T02:52:20.228Z,99.90
2019-04-10T02:54:51.094Z,99.90
2019-04-10T02:57:22.019Z,99.90
2019-04-10T02:59:53.805Z,99.90
2019-04-10T03:02:24.406Z,99.90
2019-04-10T03:04:55.152Z,99.90
2019-04-10T03:07:28.319Z,99.90
2019-04-10T03:10:08.703Z,99.90
2019-04-10T03:12:32.149Z,99.90
2019-04-10T03:15:03.441Z,99.90
2019-04-10T03:17:34.875Z,99.90
2019-04-10T03:20:05.827Z,99.90
2019-04-10T03:22:36.655Z,99.90
2019-04-10T03:25:07.364Z,99.90
2019-04-10T03:27:38.584Z,99.90
2019-04-10T03:30:11.093Z,99.90
2019-04-10T03:33:12.269Z,99.90
2019-04-10T03:35:45.213Z,99.90
2019-04-10T03:38:34.383Z,99.90
2019-04-10T03:41:04.728Z,99.90
2019-04-10T03:43:36.146Z,99.90
2019-04-10T03:46:08.926Z,99.90
2019-04-10T03:48:39.227Z,99.90
2019-04-10T03:51:09.451Z,99.90
2019-04-10T03:53:40.369Z,99.90
2019-04-10T03:56:11.663Z,99.90
2019-04-10T03:58:42.078Z,99.90
2019-04-10T04:01:12.282Z,99.90
2019-04-10T04:03:42.674Z,99.90
2019-04-10T04:06:13.957Z,99.90
2019-04-10T04:08:44.270Z,99.90
2019-04-10T04:11:15.397Z,99.90
2019-04-10T04:13:45.954Z,99.90
2019-04-10T04:16:17.198Z,99.90
2019-04-10T04:18:47.048Z,99.90
2019-04-10T04:21:17.431Z,99.90
2019-04-10T04:23:47.285Z,99.90
2019-04-10T04:26:17.244Z,99.90
2019-04-10T04:28:47.286Z,99.90
2019-04-10T04:31:18.092Z,99.90
2019-04-10T04:33:48.989Z,99.90
2019-04-10T04:36:19.084Z,99.90
2019-04-10T04:38:49.179Z,99.90
2019-04-10T04:41:19.577Z,99.90
2019-04-10T04:43:50.175Z,99.90
2019-04-10T04:46:20.535Z,99.90
2019-04-10T04:48:50.427Z,99.90
2019-04-10T04:51:20.284Z,99.90
2019-04-10T04:53:50.528Z,99.90
2019-04-10T04:56:20.525Z,99.90
2019-04-10T04:58:51.721Z,99.90
2019-04-10T05:01:23.096Z,99.90
2019-04-10T05:03:53.502Z,99.90
2019-04-10T05:06:24.340Z,99.90
2019-04-10T05:08:54.893Z,99.90
2019-04-10T05:11:25.010Z,99.90
2019-04-10T05:13:55.976Z,99.90
2019-04-10T05:16:26.134Z,99.90
2019-04-10T05:18:56.639Z,99.90
2019-04-10T05:21:27.365Z,99.90
2019-04-10T05:23:57.596Z,99.90
2019-04-10T05:26:28.925Z,99.90
2019-04-10T05:29:00.494Z,99.90
2019-04-10T05:31:30.929Z,99.90
2019-04-10T05:34:01.258Z,99.90
2019-04-10T05:36:31.861Z,99.90
2019-04-10T05:39:02.256Z,99.90
2019-04-10T05:41:33.589Z,99.90
2019-04-10T05:44:07.436Z,99.90
2019-04-10T05:46:38.859Z,99.90
2019-04-10T05:49:09.414Z,99.90
2019-04-10T05:51:41.567Z,99.90
2019-04-10T05:54:12.820Z,99.90
2019-04-10T05:56:43.204Z,99.90
2019-04-10T05:59:14.589Z,99.90
2019-04-10T06:01:45.688Z,99.90
2019-04-10T06:04:16.835Z,99.90
2019-04-10T06:06:47.155Z,99.90
2019-04-10T06:09:17.672Z,99.90
2019-04-10T06:11:48.996Z,99.90
2019-04-10T06:14:19.279Z,99.90
2019-04-10T06:16:49.548Z,99.90
2019-04-10T06:19:20.017Z,99.90
2019-04-10T06:21:50.434Z,99.90
2019-04-10T06:24:20.767Z,99.90
2019-04-10T06:26:54.061Z,99.90
2019-04-10T06:29:24.462Z,99.90
2019-04-10T06:31:54.816Z,99.90
2019-04-10T06:34:25.301Z,99.90
2019-04-10T06:36:55.748Z,99.90
2019-04-10T06:39:26.932Z,99.90
2019-04-10T06:41:58.205Z,99.90
2019-04-10T06:44:28.533Z,99.90
2019-04-10T06:46:59.941Z,99.90
2019-04-10T06:49:31.105Z,99.90
2019-04-10T06:52:01.892Z,99.90
2019-04-10T06:54:33.106Z,99.90
2019-04-10T06:57:03.663Z,99.90
2019-04-10T06:59:35.510Z,99.90
2019-04-10T07:02:19.785Z,99.90
2019-04-10T07:04:46.137Z,99.90
2019-04-10T07:07:13.736Z,99.90
2019-04-10T07:09:42.880Z,99.90
2019-04-10T07:12:14.303Z,99.90
2019-04-10T07:14:48.164Z,99.90
2019-04-10T07:17:16.624Z,99.90
2019-04-10T07:19:46.949Z,99.90
2019-04-10T07:22:17.542Z,99.90
2019-04-10T07:24:48.304Z,99.90
2019-04-10T07:27:19.663Z,99.90
2019-04-10T07:29:52.357Z,99.90
2019-04-10T07:32:24.155Z,99.90
2019-04-10T07:34:59.124Z,99.90
2019-04-10T07:37:27.001Z,99.90
2019-04-10T07:39:59.721Z,99.90
2019-04-10T07:42:35.252Z,99.90
2019-04-10T07:45:01.980Z,99.90
2019-04-10T07:47:32.373Z,99.90
2019-04-10T07:50:04.593Z,99.90
2019-04-10T07:52:34.974Z,99.90
2019-04-10T07:55:06.725Z,99.90
2019-04-10T07:57:37.049Z,99.90
2019-04-10T08:00:11.101Z,99.90
2019-04-10T08:02:42.635Z,99.90
2019-04-10T08:05:13.313Z,99.90
2019-04-10T08:07:43.300Z,99.90
2019-04-10T08:10:13.545Z,99.90
2019-04-10T08:12:50.072Z,99.90
2019-04-10T08:15:16.789Z,99.90
2019-04-10T08:17:50.471Z,99.90
2019-04-10T08:20:20.205Z,99.90
2019-04-10T08:22:51.190Z,99.90
2019-04-10T08:25:22.708Z,99.90
2019-04-10T08:27:54.268Z,99.90
2019-04-10T08:30:25.822Z,99.90
2019-04-10T08:33:00.815Z,99.90
2019-04-10T08:35:29.270Z,99.90
2019-04-10T08:38:01.212Z,99.90
2019-04-10T08:40:32.157Z,99.90
2019-04-10T08:43:02.404Z,99.90
2019-04-10T08:45:40.055Z,99.90
2019-04-10T08:48:05.745Z,99.90
2019-04-10T08:50:36.484Z,99.90
2019-04-10T08:53:06.924Z,99.90
2019-04-10T08:55:37.866Z,99.90
2019-04-10T08:58:10.308Z,99.90
2019-04-10T09:00:40.741Z,99.90
2019-04-10T09:03:11.159Z,99.90
2019-04-10T09:05:41.470Z,99.90
2019-04-10T09:08:12.612Z,99.90
2019-04-10T09:10:43.182Z,99.90
2019-04-10T09:13:14.531Z,99.90
2019-04-10T09:15:45.735Z,99.90
2019-04-10T09:18:16.849Z,99.90
2019-04-10T09:20:47.465Z,99.90
2019-04-10T09:23:27.575Z,99.90
2019-04-10T09:25:49.851Z,99.90
2019-04-10T09:28:20.174Z,99.90
2019-04-10T09:30:51.321Z,99.90
2019-04-10T09:33:26.051Z,99.90
2019-04-10T09:35:55.097Z,99.90
2019-04-10T09:38:26.466Z,99.90
2019-04-10T09:40:57.358Z,99.90
2019-04-10T09:43:27.488Z,99.90
2019-04-10T09:45:57.963Z,99.90
2019-04-10T09:48:27.963Z,99.90
2019-04-10T09:50:58.180Z,99.90
2019-04-10T09:53:28.760Z,99.90
2019-04-10T09:55:58.912Z,99.90
2019-04-10T09:58:29.570Z,99.90
2019-04-10T10:01:01.407Z,99.90
2019-04-10T10:03:32.420Z,99.90
2019-04-10T10:06:03.503Z,99.90
2019-04-10T10:08:33.793Z,99.90
2019-04-10T10:11:04.083Z,99.90
2019-04-10T10:13:34.042Z,99.90
2019-04-10T10:16:04.144Z,99.90
2019-04-10T10:18:35.214Z,99.90
2019-04-10T10:21:05.620Z,99.90
2019-04-10T10:23:36.067Z,99.90
2019-04-10T10:26:06.201Z,99.90
2019-04-10T10:28:36.119Z,99.90
2019-04-10T10:31:06.686Z,99.90
2019-04-10T10:33:37.578Z,99.90
2019-04-10T10:36:07.804Z,99.90
2019-04-10T10:38:37.779Z,99.90
2019-04-10T10:41:08.790Z,99.90
2019-04-10T10:43:40.374Z,99.90
2019-04-10T10:46:11.412Z,99.90
2019-04-10T10:48:42.050Z,99.90
2019-04-10T10:51:12.842Z,99.90
2019-04-10T10:53:44.013Z,99.90
2019-04-10T10:56:14.219Z,99.90
2019-04-10T10:58:44.116Z,99.90
2019-04-10T11:01:14.056Z,99.90
2019-04-10T11:03:44.617Z,99.90
2019-04-10T11:06:14.956Z,99.90
2019-04-10T11:08:46.125Z,99.90
2019-04-10T11:11:17.086Z,99.90
2019-04-10T11:13:47.206Z,99.90
2019-04-10T11:16:17.871Z,99.90
2019-04-10T11:18:48.464Z,99.90
2019-04-10T11:21:18.441Z,99.90
2019-04-10T11:23:49.451Z,99.90
2019-04-10T11:28:51.117Z,99.90
2019-04-10T11:31:21.194Z,99.90
2019-04-10T11:33:54.908Z,99.90
2019-04-10T11:36:23.609Z,99.90
2019-04-10T11:38:55.340Z,99.90
2019-04-10T11:41:26.220Z,97.70
2019-04-10T11:43:57.678Z,99.90
2019-04-10T11:46:31.394Z,99.90
2019-04-10T11:49:00.874Z,99.90
2019-04-10T11:51:33.395Z,99.90
2019-04-10T11:54:05.283Z,99.30
2019-04-10T11:56:37.858Z,96.70
2019-04-10T11:59:11.283Z,99.90
2019-04-10T12:01:40.110Z,99.90
2019-04-10T12:04:10.926Z,93.90
2019-04-10T12:06:43.090Z,96.30
2019-04-10T12:11:49.136Z,91.40
2019-04-10T12:14:19.787Z,90.70
2019-04-10T12:16:49.886Z,93.30
2019-04-10T12:19:19.789Z,92.10
2019-04-10T12:21:50.349Z,83.50
2019-04-10T12:24:21.714Z,86.20
2019-04-10T12:26:51.972Z,82.60
2019-04-10T12:29:22.579Z,84.30
2019-04-10T12:31:52.527Z,87.40
2019-04-10T12:34:22.558Z,92.70
2019-04-10T12:36:53.407Z,92.00
2019-04-10T12:39:24.536Z,94.90
2019-04-10T12:41:55.463Z,92.10
2019-04-10T12:44:26.458Z,81.30
2019-04-10T12:46:57.442Z,79.50
2019-04-10T12:49:27.717Z,77.90
2019-04-10T12:51:58.377Z,78.40
2019-04-10T12:54:28.419Z,86.90
2019-04-10T12:56:58.823Z,87.10
2019-04-10T12:59:29.395Z,83.50
2019-04-10T13:01:59.296Z,74.00
2019-04-10T13:04:30.245Z,79.60
2019-04-10T13:07:01.193Z,76.00
2019-04-10T13:09:31.768Z,72.70
2019-04-10T13:12:01.734Z,76.40
2019-04-10T13:14:32.740Z,77.60
2019-04-10T13:17:03.085Z,88.80
2019-04-10T13:19:34.106Z,90.90
2019-04-10T13:22:04.178Z,92.50
2019-04-10T13:24:34.055Z,92.40
2019-04-10T13:27:04.140Z,93.70
2019-04-10T13:29:34.045Z,93.80
2019-04-10T13:32:04.738Z,93.90
2019-04-10T13:34:35.389Z,92.70
2019-04-10T13:37:06.202Z,89.80
2019-04-10T13:39:37.131Z,90.10
2019-04-10T13:42:09.182Z,87.80
2019-04-10T13:44:40.401Z,78.90
2019-04-10T13:47:10.763Z,80.30
2019-04-10T13:49:40.780Z,86.50
2019-04-10T13:52:10.707Z,83.50
2019-04-10T13:54:40.989Z,88.40
2019-04-10T13:57:11.895Z,78.80
2019-04-10T13:59:41.841Z,77.20
2019-04-10T14:02:17.438Z,79.70
2019-04-10T14:04:47.368Z,86.30
2019-04-10T14:07:17.991Z,90.90
2019-04-10T14:09:51.404Z,92.40
2019-04-10T14:12:19.815Z,93.10
2019-04-10T14:14:49.696Z,96.30
2019-04-10T14:17:21.542Z,92.80
2019-04-10T14:19:51.961Z,91.00
2019-04-10T14:22:21.928Z,90.00
2019-04-10T14:24:52.175Z,92.70
2019-04-10T14:27:24.545Z,90.10
2019-04-10T14:29:54.647Z,93.10
2019-04-10T14:32:37.836Z,93.20
2019-04-10T14:35:09.647Z,92.10
2019-04-10T14:37:41.209Z,92.20
2019-04-10T14:40:12.332Z,92.80
2019-04-10T14:42:42.527Z,93.40
2019-04-10T14:45:13.840Z,94.30
2019-04-10T14:47:43.973Z,92.70
2019-04-10T14:50:14.265Z,91.10
2019-04-10T14:52:45.318Z,92.90
2019-04-10T14:55:16.502Z,90.00
2019-04-10T14:57:47.379Z,91.90
2019-04-10T15:00:31.135Z,93.70
2019-04-10T15:03:02.138Z,99.90
2019-04-10T15:05:35.466Z,99.90
2019-04-10T15:08:03.969Z,99.90
2019-04-10T15:10:34.087Z,99.90
2019-04-10T15:13:09.896Z,99.90
2019-04-10T15:15:36.590Z,99.90
2019-04-10T15:18:06.723Z,99.90
2019-04-10T15:20:37.567Z,99.90
2019-04-10T15:23:07.967Z,99.90
2019-04-10T15:25:39.444Z,99.90
2019-04-10T15:28:10.474Z,99.90
2019-04-10T15:30:40.999Z,99.90
2019-04-10T15:33:12.119Z,99.90
2019-04-10T15:35:42.346Z,99.90
2019-04-10T15:38:13.738Z,99.90
2019-04-10T15:40:44.250Z,99.90
2019-04-10T15:43:14.695Z,99.90
2019-04-10T15:45:46.233Z,99.90
2019-04-10T15:48:16.882Z,99.90
2019-04-10T15:50:47.642Z,99.90
2019-04-10T15:53:18.421Z,99.90
2019-04-10T15:55:49.791Z,99.90
2019-04-10T15:58:20.024Z,99.90
2019-04-10T16:00:51.505Z,99.90
2019-04-10T16:03:21.973Z,99.90
2019-04-10T16:05:52.269Z,99.90
2019-04-10T16:08:24.016Z,99.90
2019-04-10T16:11:11.971Z,99.90
2019-04-10T16:13:50.549Z,99.90
2019-04-10T16:16:42.485Z,99.90
2019-04-10T16:19:20.608Z,99.90
2019-04-10T16:21:52.101Z,99.90
2019-04-10T16:24:22.906Z,99.90
2019-04-10T16:26:53.709Z,99.90
2019-04-10T16:29:25.214Z,99.90
2019-04-10T16:31:56.585Z,99.90
2019-04-10T16:34:26.932Z,99.90
2019-04-10T16:36:57.704Z,99.90
2019-04-10T16:39:28.043Z,99.90
2019-04-10T16:41:58.280Z,99.90
2019-04-10T16:44:28.977Z,99.90
2019-04-10T16:46:59.993Z,99.90
2019-04-10T16:49:32.970Z,99.90
2019-04-10T16:52:05.328Z,99.90
2019-04-10T16:54:35.544Z,99.90
2019-04-10T16:57:06.584Z,99.90
2019-04-10T16:59:37.569Z,99.90
2019-04-10T17:02:08.026Z,99.90
2019-04-10T17:04:39.551Z,99.90
2019-04-10T17:07:10.605Z,99.90
2019-04-10T17:10:11.538Z,99.90
2019-04-10T17:12:31.779Z,99.90
2019-04-10T17:15:01.966Z,99.90
2019-04-10T17:17:33.149Z,99.90
2019-04-10T17:20:04.166Z,99.90
2019-04-10T17:22:41.846Z,99.90
2019-04-10T17:25:26.356Z,99.90
2019-04-10T17:27:56.769Z,99.90
2019-04-10T17:30:27.623Z,99.90
2019-04-10T17:32:57.903Z,99.90
2019-04-10T17:35:29.485Z,99.90
2019-04-10T17:38:00.392Z,99.90
2019-04-10T17:40:38.501Z,99.90
2019-04-10T17:43:03.064Z,99.90
2019-04-10T17:45:34.332Z,99.90
2019-04-10T17:48:05.220Z,99.90
2019-04-10T17:50:35.421Z,99.90
2019-04-10T17:53:07.125Z,99.90
2019-04-10T17:55:37.758Z,99.90
2019-04-10T17:58:09.577Z,99.90
2019-04-10T18:00:43.178Z,99.90
2019-04-10T18:03:16.796Z,99.90
2019-04-10T18:05:46.739Z,99.90
2019-04-10T18:08:17.302Z,99.90
2019-04-10T18:10:51.128Z,99.90
2019-04-10T18:13:20.418Z,99.90
2019-04-10T18:15:51.072Z,99.90
2019-04-10T18:18:21.938Z,99.90
2019-04-10T18:20:52.546Z,99.90
2019-04-10T18:23:23.033Z,99.90
2019-04-10T18:25:54.151Z,99.90
2019-04-10T18:28:25.424Z,99.90
2019-04-10T18:30:58.616Z,99.90
2019-04-10T18:33:28.651Z,99.90
2019-04-10T18:35:59.464Z,99.90
2019-04-10T18:38:29.981Z,99.90
2019-04-10T18:41:03.672Z,99.90
2019-04-10T18:43:32.070Z,99.90
2019-04-10T18:46:10.407Z,99.90
2019-04-10T18:48:35.786Z,99.90
2019-04-10T18:51:07.809Z,99.90
2019-04-10T18:53:39.420Z,99.90
2019-04-10T18:56:09.597Z,99.90
2019-04-10T18:58:45.926Z,99.90
2019-04-10T19:01:47.383Z,99.90
2019-04-10T19:04:27.379Z,99.90
2019-04-10T19:06:59.219Z,99.90
2019-04-10T19:09:30.888Z,99.90
2019-04-10T19:12:02.494Z,99.90
2019-04-10T19:14:36.175Z,99.90
2019-04-10T19:17:06.620Z,99.90
2019-04-10T19:19:40.323Z,99.90
2019-04-10T19:22:11.238Z,99.90
2019-04-10T19:24:43.974Z,99.90
2019-04-10T19:27:14.640Z,99.90
2019-04-10T19:29:44.977Z,99.90
2019-04-10T19:32:24.723Z,99.90
2019-04-10T19:34:54.947Z,99.90
2019-04-10T19:37:25.165Z,99.90
2019-04-10T19:39:56.540Z,99.90
2019-04-10T19:42:45.872Z,99.90
2019-04-10T19:45:17.745Z,99.90
2019-04-10T19:47:47.799Z,99.90
2019-04-10T19:50:17.633Z,99.90
2019-04-10T19:52:48.665Z,99.90
2019-04-10T19:55:19.756Z,99.90
2019-04-10T19:57:49.907Z,99.90
2019-04-10T20:00:24.166Z,99.90
2019-04-10T20:02:55.163Z,99.90
2019-04-10T20:05:25.356Z,99.90
2019-04-10T20:07:55.421Z,99.90
2019-04-10T20:10:25.493Z,99.90
2019-04-10T20:12:55.347Z,99.90
2019-04-10T20:15:25.229Z,99.90
2019-04-10T20:17:55.091Z,99.90
2019-04-10T20:20:24.949Z,99.90
2019-04-10T20:22:55.606Z,99.90
2019-04-10T20:25:26.233Z,99.90
2019-04-10T20:27:56.372Z,99.90
2019-04-10T20:30:28.028Z,99.90
2019-04-10T20:32:58.627Z,99.90
2019-04-10T20:35:28.648Z,99.90
2019-04-10T20:37:58.872Z,99.90
2019-04-10T20:40:29.684Z,99.90
2019-04-10T20:43:04.845Z,99.90
2019-04-10T20:45:35.755Z,99.90
2019-04-10T20:48:06.687Z,99.90
2019-04-10T20:50:36.556Z,99.90
2019-04-10T20:53:07.520Z,99.90
2019-04-10T20:55:37.690Z,99.90
2019-04-10T20:58:07.658Z,99.90
2019-04-10T21:00:41.076Z,99.90
2019-04-10T21:03:11.486Z,99.90
2019-04-10T21:05:42.448Z,99.90
2019-04-10T21:08:12.345Z,99.90
2019-04-10T21:10:42.891Z,99.90
2019-04-10T21:13:13.013Z,99.90
2019-04-10T21:15:44.243Z,99.90
2019-04-10T21:18:15.344Z,99.90
2019-04-10T21:20:45.415Z,99.90
2019-04-10T21:23:15.285Z,99.90
2019-04-10T21:25:45.621Z,99.90
2019-04-10T21:28:16.267Z,99.90
2019-04-10T21:31:11.761Z,99.90
2019-04-10T21:34:01.260Z,99.90
2019-04-10T21:36:32.817Z,99.90
2019-04-10T21:39:03.112Z,99.90
2019-04-10T21:41:33.083Z,99.90
2019-04-10T21:44:04.271Z,99.90
2019-04-10T21:46:34.659Z,99.90
2019-04-10T21:49:05.662Z,99.90
2019-04-10T21:51:35.612Z,99.90
2019-04-10T21:54:06.382Z,99.90
2019-04-10T21:56:40.851Z,99.90
2019-04-10T21:59:13.387Z,99.90
2019-04-10T22:01:44.520Z,99.90
2019-04-10T22:04:14.759Z,99.90
2019-04-10T22:07:13.962Z,99.90
2019-04-10T22:10:07.847Z,99.90
2019-04-10T22:12:43.756Z,99.90
2019-04-10T22:15:47.012Z,99.90
2019-04-10T22:18:17.261Z,99.90
2019-04-10T22:20:48.002Z,99.90
2019-04-10T22:23:18.068Z,99.90
2019-04-10T22:25:48.143Z,99.90
2019-04-10T22:28:19.038Z,99.90
2019-04-10T22:30:49.148Z,99.90
2019-04-10T22:33:20.163Z,99.90
2019-04-10T22:35:50.421Z,99.90
2019-04-10T22:38:21.422Z,99.90
2019-04-10T22:40:51.511Z,99.90
2019-04-10T22:43:22.350Z,99.90
2019-04-10T22:45:52.874Z,99.90
2019-04-10T22:48:23.030Z,99.90
2019-04-10T22:50:53.556Z,99.90
2019-04-10T22:53:23.761Z,99.90
2019-04-10T22:55:54.744Z,99.90
2019-04-10T22:58:24.661Z,99.90
2019-04-10T23:00:55.835Z,99.90
2019-04-10T23:03:25.863Z,99.90
2019-04-10T23:05:56.501Z,99.90
2019-04-10T23:08:27.301Z,99.90
2019-04-10T23:10:57.325Z,99.90
2019-04-10T23:13:27.445Z,99.90
2019-04-10T23:15:57.851Z,99.90
2019-04-10T23:18:29.720Z,99.90
2019-04-10T23:21:00.588Z,99.90
2019-04-10T23:23:30.800Z,99.90
2019-04-10T23:26:00.800Z,99.90
2019-04-10T23:28:31.562Z,99.90
2019-04-10T23:31:01.449Z,99.90
2019-04-10T23:33:33.015Z,99.90
2019-04-10T23:36:03.114Z,99.90
2019-04-10T23:38:33.253Z,99.90
2019-04-10T23:41:03.500Z,99.90
2019-04-10T23:43:33.519Z,99.90
2019-04-10T23:46:04.218Z,99.90
2019-04-10T23:48:34.986Z,99.90
2019-04-10T23:51:05.027Z,99.90
2019-04-10T23:53:34.847Z,99.90
2019-04-10T23:56:04.804Z,99.90
2019-04-10T23:58:34.676Z,99.90
